カリーニングラード の空港の天気 - METARとTAF

フラブロヴォ空港 ( UMKK / KGD ) - ロシア カリーニングラード
飛行場実況気象(Metar)
観測時間08/04 21:30 EET (08/04 19:30 UTC)
風向・風速西北西 4m/s
視程10km以上
天気現象
全天の4割程度の雲 雲底高度 490m
気温16℃
湿度88%
気圧1013hPa
METARUMKK 041930Z 29004MPS 9999 SCT016 16/14 Q1013 R24/CLRD95 NOSIG RMK QFE758/1011
過去の天気等 Google飛行場航空写真 Wunderground天気予報

過去48時間のMETAR

飛行場予報(TAF)
発表時間: 8/04 18:53 EET (8/04 16:53 UTC)
予報対象時間: 4日20時 EET ~ 5日20時 EET
風向・風速西北西 5m/s 瞬間風速 10m/s
視程10km以上
全天の8割程度の雲 雲底高度 340m
全天の4割程度の積乱雲 雲底高度 610m
4日20時 EET ~ 4日23時 EET に一時的に
視程3100m
天気現象弱いしゅう雨 もや
全天の4割程度の雲 雲底高度 180m
全天の4割程度の積乱雲 雲底高度 490m
4日23時 EET ~ 5日1時 EET に徐々に
風向・風速西 3m/s 瞬間風速 8m/s
なし
5日7時 EET ~ 5日9時 EET に徐々に
風向・風速北西 5m/s 瞬間風速 10m/s
5日15時 EET ~ 5日17時 EET に徐々に
風向・風速北 3m/s 瞬間風速 8m/s
TAF UMKK 041653Z 0418/0518 30005G10MPS 9999 BKN011 SCT020CB
TEMPO 0418/0421 3100 -SHRA BR SCT006 SCT016CB
BECMG 0421/0423 27003G08MPS NSC
BECMG 0505/0507 32005G10MPS
BECMG 0513/0515 36003G08MPS